SAS2485 ENBR-EKBI
Flight info
| Callsign | SAS2485 |
|---|---|
| Flight time | N/A |
| Altitude | 33000 |
| Route | TUXIL DCT ZOL DCT GELBA |
| Aircraft | B738/M-SDFGHIRWXYZ/LB1 |
Departure
| Time | N/A |
|---|---|
| Airport | Bergen Airport, Flesland (ENBR) |
Arrival
| Time | 2026-05-07 17:37 |
|---|---|
| Airport | Billund Airport (EKBI) |
| Time | Latitude | Longitude | Altitude | Speed | Heading |
|---|---|---|---|---|---|
| 2026-05-07 16:51 | 59.41960 | 5.44597 | 25107 ft | 384 kts | 179° |
| 2026-05-07 16:51 | 59.39261 | 5.45294 | 25221 ft | 399 kts | 178° |
| 2026-05-07 16:51 | 59.36481 | 5.46207 | 25433 ft | 410 kts | 175° |
| 2026-05-07 16:52 | 59.33661 | 5.47253 | 25834 ft | 415 kts | 175° |
| 2026-05-07 16:52 | 59.30814 | 5.48341 | 26274 ft | 418 kts | 175° |
| 2026-05-07 16:52 | 59.28002 | 5.49405 | 26339 ft | 430 kts | 175° |
| 2026-05-07 16:52 | 59.25018 | 5.50515 | 26405 ft | 442 kts | 175° |
| 2026-05-07 16:53 | 59.21962 | 5.51635 | 26485 ft | 452 kts | 175° |
| 2026-05-07 16:53 | 59.18834 | 5.52772 | 26630 ft | 459 kts | 175° |
| 2026-05-07 16:53 | 59.15688 | 5.53912 | 26947 ft | 462 kts | 175° |
| 2026-05-07 16:53 | 59.12522 | 5.55058 | 27349 ft | 463 kts | 175° |
| 2026-05-07 16:54 | 59.09361 | 5.56198 | 27708 ft | 464 kts | 175° |
| 2026-05-07 16:54 | 59.06176 | 5.57342 | 28022 ft | 466 kts | 175° |
| 2026-05-07 16:54 | 59.02978 | 5.58486 | 28315 ft | 469 kts | 175° |
| 2026-05-07 16:54 | 58.99769 | 5.59634 | 28739 ft | 467 kts | 175° |
| 2026-05-07 16:55 | 58.96599 | 5.60770 | 29449 ft | 459 kts | 175° |
| 2026-05-07 16:55 | 58.93482 | 5.61884 | 30172 ft | 450 kts | 175° |
| 2026-05-07 16:55 | 58.90421 | 5.62977 | 30816 ft | 444 kts | 174° |
| 2026-05-07 16:55 | 58.87428 | 5.64517 | 31323 ft | 447 kts | 166° |
| 2026-05-07 16:56 | 58.84568 | 5.66963 | 31647 ft | 455 kts | 156° |
| 2026-05-07 16:56 | 58.81838 | 5.69957 | 31972 ft | 457 kts | 154° |
| 2026-05-07 16:56 | 58.76369 | 5.76177 | 32755 ft | 455 kts | 154° |
| 2026-05-07 16:57 | 58.73643 | 5.79270 | 33097 ft | 456 kts | 154° |
| 2026-05-07 16:57 | 58.70884 | 5.82368 | 33087 ft | 463 kts | 154° |
| 2026-05-07 16:57 | 58.65284 | 5.88573 | 33099 ft | 465 kts | 154° |
| 2026-05-07 16:58 | 58.59711 | 5.94696 | 33095 ft | 458 kts | 154° |
| 2026-05-07 16:58 | 58.54181 | 6.00735 | 33111 ft | 458 kts | 154° |
| 2026-05-07 16:59 | 58.48639 | 6.06762 | 33109 ft | 458 kts | 154° |
| 2026-05-07 16:59 | 58.43091 | 6.12778 | 33111 ft | 459 kts | 154° |
| 2026-05-07 17:00 | 58.37533 | 6.18784 | 33111 ft | 459 kts | 154° |
| 2026-05-07 17:00 | 58.31974 | 6.24768 | 33111 ft | 459 kts | 154° |
| 2026-05-07 17:01 | 58.26415 | 6.30732 | 33112 ft | 459 kts | 154° |
| 2026-05-07 17:01 | 58.20853 | 6.36679 | 33112 ft | 459 kts | 154° |
| 2026-05-07 17:02 | 58.15286 | 6.42608 | 33110 ft | 459 kts | 154° |
| 2026-05-07 17:02 | 58.09721 | 6.48515 | 33119 ft | 459 kts | 154° |
| 2026-05-07 17:03 | 58.05086 | 6.53417 | 33121 ft | 459 kts | 154° |
| 2026-05-07 17:03 | 57.99517 | 6.59287 | 33121 ft | 459 kts | 154° |
| 2026-05-07 17:04 | 57.93031 | 6.66097 | 33126 ft | 459 kts | 154° |
| 2026-05-07 17:04 | 57.87452 | 6.71935 | 33120 ft | 458 kts | 154° |
| 2026-05-07 17:05 | 57.82782 | 6.76804 | 33118 ft | 458 kts | 154° |
| 2026-05-07 17:05 | 57.77217 | 6.82586 | 33119 ft | 457 kts | 153° |
| 2026-05-07 17:06 | 57.71661 | 6.88338 | 33119 ft | 456 kts | 153° |
| 2026-05-07 17:06 | 57.66145 | 6.94030 | 33121 ft | 456 kts | 153° |
| 2026-05-07 17:07 | 57.60567 | 6.99766 | 33118 ft | 455 kts | 153° |
| 2026-05-07 17:07 | 57.55018 | 7.05451 | 33121 ft | 455 kts | 153° |
| 2026-05-07 17:08 | 57.49504 | 7.11082 | 33122 ft | 455 kts | 153° |
| 2026-05-07 17:08 | 57.43959 | 7.16724 | 33119 ft | 454 kts | 153° |
| 2026-05-07 17:09 | 57.38409 | 7.22352 | 33119 ft | 454 kts | 153° |
| 2026-05-07 17:09 | 57.32867 | 7.27952 | 33117 ft | 454 kts | 153° |
| 2026-05-07 17:10 | 57.27319 | 7.33538 | 33122 ft | 454 kts | 153° |
| 2026-05-07 17:10 | 57.21765 | 7.39111 | 33118 ft | 454 kts | 153° |
| 2026-05-07 17:11 | 57.16279 | 7.44598 | 33121 ft | 454 kts | 153° |
| 2026-05-07 17:11 | 57.10729 | 7.50130 | 33121 ft | 454 kts | 153° |
| 2026-05-07 17:12 | 57.05173 | 7.55648 | 33119 ft | 454 kts | 153° |
| 2026-05-07 17:12 | 56.99622 | 7.61141 | 33121 ft | 453 kts | 153° |
| 2026-05-07 17:13 | 56.94112 | 7.66578 | 33099 ft | 443 kts | 153° |
| 2026-05-07 17:13 | 56.88721 | 7.71879 | 33115 ft | 439 kts | 153° |
| 2026-05-07 17:14 | 56.83339 | 7.77151 | 33114 ft | 437 kts | 153° |
| 2026-05-07 17:14 | 56.80700 | 7.79732 | 33089 ft | 423 kts | 153° |
| 2026-05-07 17:14 | 56.78154 | 7.82218 | 33030 ft | 411 kts | 153° |
| 2026-05-07 17:15 | 56.75632 | 7.84676 | 32531 ft | 411 kts | 153° |
| 2026-05-07 17:15 | 56.73113 | 7.87126 | 32107 ft | 410 kts | 153° |
| 2026-05-07 17:15 | 56.70597 | 7.89569 | 31650 ft | 409 kts | 153° |
| 2026-05-07 17:15 | 56.68092 | 7.92000 | 31220 ft | 408 kts | 153° |
| 2026-05-07 17:16 | 56.65600 | 7.94414 | 30778 ft | 407 kts | 153° |
| 2026-05-07 17:16 | 56.63106 | 7.96825 | 30333 ft | 405 kts | 153° |
| 2026-05-07 17:16 | 56.60648 | 7.99198 | 29891 ft | 404 kts | 153° |
| 2026-05-07 17:16 | 56.58169 | 8.01587 | 29447 ft | 402 kts | 153° |
| 2026-05-07 17:17 | 56.55699 | 8.03965 | 28998 ft | 401 kts | 153° |
| 2026-05-07 17:17 | 56.53249 | 8.06321 | 28549 ft | 399 kts | 153° |
| 2026-05-07 17:17 | 56.50806 | 8.08665 | 28105 ft | 397 kts | 153° |
| 2026-05-07 17:17 | 56.48363 | 8.11006 | 27659 ft | 395 kts | 153° |
| 2026-05-07 17:18 | 56.45945 | 8.13321 | 27206 ft | 393 kts | 153° |
| 2026-05-07 17:18 | 56.43533 | 8.15627 | 26757 ft | 392 kts | 153° |
| 2026-05-07 17:18 | 56.41125 | 8.17926 | 26309 ft | 390 kts | 153° |
| 2026-05-07 17:18 | 56.38741 | 8.20198 | 25844 ft | 383 kts | 153° |
| 2026-05-07 17:19 | 56.36407 | 8.22419 | 25383 ft | 375 kts | 154° |
| 2026-05-07 17:19 | 56.34124 | 8.24588 | 24925 ft | 367 kts | 154° |
| 2026-05-07 17:19 | 56.31883 | 8.26716 | 24471 ft | 361 kts | 154° |
| 2026-05-07 17:19 | 56.29684 | 8.28802 | 24018 ft | 354 kts | 154° |
| 2026-05-07 17:20 | 56.27527 | 8.30845 | 23562 ft | 348 kts | 154° |
| 2026-05-07 17:20 | 56.25400 | 8.32856 | 23113 ft | 343 kts | 154° |
| 2026-05-07 17:20 | 56.23330 | 8.34810 | 22665 ft | 338 kts | 154° |
| 2026-05-07 17:20 | 56.21231 | 8.36789 | 22206 ft | 333 kts | 154° |
| 2026-05-07 17:21 | 56.19192 | 8.38709 | 21754 ft | 329 kts | 154° |
| 2026-05-07 17:21 | 56.17173 | 8.40609 | 21305 ft | 325 kts | 154° |
| 2026-05-07 17:21 | 56.15177 | 8.42485 | 20853 ft | 322 kts | 154° |
| 2026-05-07 17:21 | 56.13209 | 8.44331 | 20403 ft | 318 kts | 154° |
| 2026-05-07 17:22 | 56.11256 | 8.46161 | 19954 ft | 315 kts | 154° |
| 2026-05-07 17:22 | 56.09328 | 8.47964 | 19511 ft | 312 kts | 154° |
| 2026-05-07 17:22 | 56.07410 | 8.49758 | 19049 ft | 309 kts | 154° |
| 2026-05-07 17:22 | 56.05512 | 8.51531 | 18604 ft | 306 kts | 154° |
| 2026-05-07 17:23 | 56.03632 | 8.53287 | 18160 ft | 304 kts | 154° |
| 2026-05-07 17:23 | 56.01776 | 8.55018 | 17837 ft | 297 kts | 154° |
| 2026-05-07 17:23 | 55.99978 | 8.56693 | 17575 ft | 288 kts | 154° |
| 2026-05-07 17:23 | 55.98224 | 8.58326 | 17313 ft | 280 kts | 154° |
| 2026-05-07 17:24 | 55.96515 | 8.59915 | 17050 ft | 274 kts | 154° |
| 2026-05-07 17:24 | 55.94840 | 8.61469 | 16795 ft | 270 kts | 154° |
| 2026-05-07 17:24 | 55.93180 | 8.63009 | 16543 ft | 268 kts | 154° |
| 2026-05-07 17:24 | 55.91533 | 8.64534 | 16299 ft | 266 kts | 154° |
| 2026-05-07 17:25 | 55.89897 | 8.66048 | 16049 ft | 264 kts | 154° |
| 2026-05-07 17:25 | 55.88285 | 8.67538 | 15800 ft | 265 kts | 154° |
| 2026-05-07 17:25 | 55.86637 | 8.69060 | 15571 ft | 269 kts | 154° |
| 2026-05-07 17:25 | 55.84972 | 8.70596 | 15328 ft | 270 kts | 154° |
| 2026-05-07 17:26 | 55.83289 | 8.72148 | 15092 ft | 273 kts | 154° |
| 2026-05-07 17:26 | 55.81598 | 8.73708 | 14841 ft | 274 kts | 154° |
| 2026-05-07 17:26 | 55.79917 | 8.75256 | 14591 ft | 272 kts | 154° |
| 2026-05-07 17:26 | 55.78333 | 8.77058 | 14288 ft | 273 kts | 133° |
| 2026-05-07 17:27 | 55.77486 | 8.80026 | 13957 ft | 273 kts | 98° |
| 2026-05-07 17:27 | 55.77502 | 8.83362 | 13673 ft | 271 kts | 82° |
| 2026-05-07 17:27 | 55.77789 | 8.86682 | 13356 ft | 272 kts | 80° |
| 2026-05-07 17:27 | 55.78113 | 8.89990 | 13028 ft | 273 kts | 79° |
| 2026-05-07 17:28 | 55.78442 | 8.93344 | 12559 ft | 280 kts | 80° |
| 2026-05-07 17:28 | 55.78774 | 8.96794 | 12030 ft | 285 kts | 80° |
| 2026-05-07 17:28 | 55.79098 | 9.00258 | 11556 ft | 284 kts | 80° |
| 2026-05-07 17:28 | 55.79416 | 9.03709 | 11105 ft | 282 kts | 81° |
| 2026-05-07 17:29 | 55.79725 | 9.07117 | 10642 ft | 280 kts | 81° |
| 2026-05-07 17:29 | 55.80032 | 9.10535 | 10198 ft | 278 kts | 81° |
| 2026-05-07 17:29 | 55.80333 | 9.13915 | 9738 ft | 276 kts | 81° |
| 2026-05-07 17:29 | 55.80631 | 9.17278 | 9250 ft | 275 kts | 81° |
| 2026-05-07 17:30 | 55.80926 | 9.20628 | 8788 ft | 274 kts | 81° |
| 2026-05-07 17:30 | 55.81219 | 9.23958 | 8313 ft | 273 kts | 81° |
| 2026-05-07 17:30 | 55.81510 | 9.27291 | 7836 ft | 272 kts | 81° |
| 2026-05-07 17:30 | 55.81799 | 9.30602 | 7366 ft | 270 kts | 81° |
| 2026-05-07 17:31 | 55.82086 | 9.33901 | 6889 ft | 269 kts | 81° |
| 2026-05-07 17:31 | 55.82371 | 9.37185 | 6416 ft | 268 kts | 81° |
| 2026-05-07 17:31 | 55.82652 | 9.40452 | 5941 ft | 267 kts | 81° |
| 2026-05-07 17:31 | 55.82927 | 9.43673 | 5471 ft | 267 kts | 81° |
| 2026-05-07 17:32 | 55.83158 | 9.46974 | 4984 ft | 265 kts | 91° |
| 2026-05-07 17:32 | 55.82693 | 9.50067 | 4499 ft | 264 kts | 121° |
| 2026-05-07 17:32 | 55.81434 | 9.52378 | 4032 ft | 262 kts | 149° |
| 2026-05-07 17:32 | 55.79719 | 9.53354 | 3565 ft | 260 kts | 176° |
| 2026-05-07 17:33 | 55.77941 | 9.52971 | 3165 ft | 256 kts | 196° |
| 2026-05-07 17:33 | 55.76299 | 9.52027 | 3031 ft | 243 kts | 205° |
| 2026-05-07 17:33 | 55.75123 | 9.50132 | 2993 ft | 230 kts | 244° |
| 2026-05-07 17:33 | 55.74891 | 9.47460 | 3000 ft | 218 kts | 277° |
| 2026-05-07 17:34 | 55.74994 | 9.44818 | 3009 ft | 210 kts | 269° |
| 2026-05-07 17:34 | 55.74933 | 9.42285 | 2883 ft | 204 kts | 266° |
| 2026-05-07 17:34 | 55.74842 | 9.39774 | 2646 ft | 203 kts | 266° |
| 2026-05-07 17:34 | 55.74756 | 9.37289 | 2382 ft | 201 kts | 266° |
| 2026-05-07 17:35 | 55.74673 | 9.34809 | 2117 ft | 200 kts | 266° |
| 2026-05-07 17:35 | 55.74590 | 9.32373 | 1852 ft | 195 kts | 267° |
| 2026-05-07 17:35 | 55.74513 | 9.30036 | 1610 ft | 185 kts | 268° |
| 2026-05-07 17:35 | 55.74440 | 9.27816 | 1366 ft | 175 kts | 268° |
| 2026-05-07 17:36 | 55.74372 | 9.25740 | 1174 ft | 160 kts | 268° |
| 2026-05-07 17:36 | 55.74312 | 9.23881 | 936 ft | 142 kts | 268° |
| 2026-05-07 17:36 | 55.74257 | 9.22192 | 745 ft | 134 kts | 268° |
| 2026-05-07 17:36 | 55.74204 | 9.20535 | 587 ft | 136 kts | 268° |
| 2026-05-07 17:37 | 55.74150 | 9.18866 | 404 ft | 137 kts | 268° |
| 2026-05-07 17:37 | 55.74097 | 9.17192 | 254 ft | 133 kts | 268° |
| 2026-05-07 17:37 | 55.74069 | 9.15774 | 237 ft | 98 kts | 267° |
| 2026-05-07 17:37 | 55.74026 | 9.14776 | 234 ft | 32 kts | 267° |
| 2026-05-07 17:38 | 55.74024 | 9.14548 | 232 ft | 14 kts | 288° |
| 2026-05-07 17:38 | 55.74112 | 9.14495 | 230 ft | 13 kts | 359° |
| 2026-05-07 17:38 | 55.74203 | 9.14483 | 230 ft | 13 kts | 357° |
| 2026-05-07 17:38 | 55.74292 | 9.14477 | 230 ft | 13 kts | 358° |
| 2026-05-07 17:39 | 55.74380 | 9.14469 | 230 ft | 15 kts | 356° |
| 2026-05-07 17:39 | 55.74447 | 9.14601 | 231 ft | 14 kts | 85° |
| 2026-05-07 17:39 | 55.74492 | 9.14691 | 234 ft | 7 kts | 353° |
| 2026-05-07 17:39 | 55.74528 | 9.14681 | 232 ft | 0 kts | 355° |